createdAt,value
2023-01-09T00:01:44.827Z,14.36
2023-01-09T00:04:13.387Z,14.35
2023-01-09T00:06:46.500Z,14.35
2023-01-09T00:09:14.106Z,14.34
2023-01-09T00:11:41.013Z,14.34
2023-01-09T00:16:55.896Z,14.35
2023-01-09T00:19:23.610Z,14.35
2023-01-09T00:21:50.758Z,14.36
2023-01-09T00:24:17.768Z,14.36
2023-01-09T00:26:44.688Z,14.36
2023-01-09T00:29:16.314Z,14.35
2023-01-09T00:31:44.468Z,14.33
2023-01-09T00:34:12.261Z,14.32
2023-01-09T00:36:57.988Z,14.30
2023-01-09T00:39:36.795Z,14.31
2023-01-09T00:42:11.776Z,14.32
2023-01-09T00:44:49.459Z,14.34
2023-01-09T00:47:31.395Z,14.35
2023-01-09T00:50:05.384Z,14.38
2023-01-09T00:52:36.090Z,14.40
2023-01-09T00:55:04.261Z,14.40
2023-01-09T00:57:34.099Z,14.45
2023-01-09T01:00:02.346Z,14.45
2023-01-09T01:02:29.360Z,14.47
2023-01-09T01:05:24.255Z,14.49
2023-01-09T01:08:05.529Z,14.51
2023-01-09T01:10:36.173Z,14.51
2023-01-09T01:13:03.712Z,14.51
2023-01-09T01:15:32.070Z,14.49
2023-01-09T01:18:03.345Z,14.49
2023-01-09T01:20:30.482Z,14.48
2023-01-09T01:24:16.940Z,14.48
2023-01-09T01:26:14.415Z,14.44
2023-01-09T01:28:43.359Z,14.42
2023-01-09T01:31:20.618Z,14.42
2023-01-09T01:33:47.748Z,14.45
2023-01-09T01:38:59.990Z,14.49
2023-01-09T01:41:47.315Z,14.51
2023-01-09T01:44:52.308Z,14.53
2023-01-09T01:48:00.647Z,14.58
2023-01-09T01:50:35.585Z,14.60
2023-01-09T01:53:17.235Z,14.60
2023-01-09T01:56:15.085Z,14.64
2023-01-09T01:58:56.624Z,14.65
2023-01-09T02:01:25.932Z,14.68
2023-01-09T02:03:55.679Z,14.70
2023-01-09T02:06:39.904Z,14.69
2023-01-09T02:09:07.711Z,14.67
2023-01-09T02:11:34.651Z,14.65
2023-01-09T02:14:05.711Z,14.59
2023-01-09T02:17:12.531Z,14.52
2023-01-09T02:19:40.037Z,14.44
2023-01-09T02:22:37.891Z,14.40
2023-01-09T02:25:29.100Z,14.34
2023-01-09T02:28:20.673Z,14.29
2023-01-09T02:31:02.030Z,14.25
2023-01-09T02:33:57.366Z,14.19
2023-01-09T02:36:51.857Z,14.16
2023-01-09T02:39:34.813Z,14.13
2023-01-09T02:42:14.359Z,14.11
2023-01-09T02:44:43.328Z,14.07
2023-01-09T02:47:29.698Z,14.06
2023-01-09T02:50:10.476Z,14.01
2023-01-09T02:53:09.089Z,13.98
2023-01-09T02:56:14.153Z,13.96
2023-01-09T02:59:34.113Z,13.96
2023-01-09T03:02:10.046Z,13.96
2023-01-09T03:04:51.416Z,14.02
2023-01-09T03:07:34.872Z,14.07
2023-01-09T03:10:19.490Z,14.12
2023-01-09T03:12:52.013Z,14.16
2023-01-09T03:15:24.237Z,14.17
2023-01-09T03:17:52.670Z,14.16
2023-01-09T03:20:24.567Z,14.16
2023-01-09T03:23:06.648Z,14.14
2023-01-09T03:25:34.706Z,14.12
2023-01-09T03:28:51.541Z,14.11
2023-01-09T03:31:19.303Z,14.07
2023-01-09T03:33:46.321Z,14.05
2023-01-09T03:36:33.299Z,14.06
2023-01-09T03:39:00.417Z,14.02
2023-01-09T03:41:31.329Z,14.01
2023-01-09T03:43:59.254Z,14.01
2023-01-09T03:46:26.170Z,14.00
2023-01-09T03:48:53.074Z,14.00
2023-01-09T03:51:23.060Z,13.98
2023-01-09T03:53:52.964Z,13.93
2023-01-09T03:56:19.883Z,13.87
2023-01-09T03:58:50.217Z,13.81
2023-01-09T04:01:21.321Z,13.82
2023-01-09T04:03:48.459Z,13.80
2023-01-09T04:06:15.405Z,13.77
2023-01-09T04:08:42.397Z,13.73
2023-01-09T04:11:09.898Z,13.73
2023-01-09T04:13:36.782Z,13.69
2023-01-09T04:16:04.216Z,13.68
2023-01-09T04:18:31.333Z,13.71
2023-01-09T04:20:58.247Z,13.79
2023-01-09T04:23:25.155Z,13.87
2023-01-09T04:25:53.533Z,13.92
2023-01-09T04:28:23.457Z,13.96
2023-01-09T04:31:15.397Z,14.01
2023-01-09T04:33:42.284Z,14.03
2023-01-09T04:36:15.702Z,14.07
2023-01-09T04:38:46.320Z,14.03
2023-01-09T04:47:54.679Z,13.93
2023-01-09T04:50:21.779Z,13.92
2023-01-09T04:52:48.680Z,13.90
2023-01-09T04:55:15.783Z,13.87
2023-01-09T04:57:53.998Z,13.83
2023-01-09T05:00:24.459Z,13.81
2023-01-09T05:02:51.548Z,13.79
2023-01-09T05:05:22.127Z,13.78
2023-01-09T05:07:52.988Z,13.79
2023-01-09T05:10:19.959Z,13.80
2023-01-09T05:12:46.865Z,13.81
2023-01-09T05:15:14.838Z,13.81
2023-01-09T05:18:00.337Z,13.84
2023-01-09T05:20:27.744Z,13.88
2023-01-09T05:22:54.729Z,13.88
2023-01-09T05:25:22.883Z,13.88
2023-01-09T05:27:49.764Z,13.88
2023-01-09T05:30:18.385Z,13.88
2023-01-09T05:32:45.755Z,13.85
2023-01-09T05:35:12.691Z,13.84
2023-01-09T05:37:40.108Z,13.81
2023-01-09T05:40:07.620Z,13.79
2023-01-09T05:42:34.503Z,13.77
2023-01-09T05:45:01.449Z,13.74
2023-01-09T05:47:28.579Z,13.71
2023-01-09T05:50:15.216Z,13.66
2023-01-09T05:52:42.106Z,13.61
2023-01-09T05:55:15.118Z,13.58
2023-01-09T05:57:42.148Z,13.54
2023-01-09T06:00:10.813Z,13.53
2023-01-09T06:02:37.962Z,13.48
2023-01-09T06:05:05.508Z,13.45
2023-01-09T06:07:35.059Z,13.39
2023-01-09T06:10:03.838Z,13.39
2023-01-09T06:12:34.788Z,13.35
2023-01-09T06:15:54.110Z,13.33
2023-01-09T06:18:21.121Z,13.32
2023-01-09T06:20:48.257Z,13.29
2023-01-09T06:23:15.289Z,13.30
2023-01-09T06:25:45.653Z,13.27
2023-01-09T06:28:12.856Z,13.25
2023-01-09T06:30:39.975Z,13.21
2023-01-09T06:35:57.696Z,13.12
2023-01-09T06:38:24.685Z,13.05
2023-01-09T06:40:51.855Z,12.99
2023-01-09T06:43:19.556Z,12.91
2023-01-09T06:45:46.536Z,12.88
2023-01-09T06:48:19.791Z,12.84
2023-01-09T06:50:48.477Z,12.80
2023-01-09T06:53:15.458Z,12.76
2023-01-09T06:55:42.689Z,12.72
2023-01-09T06:58:09.799Z,12.67
2023-01-09T07:00:39.960Z,12.64
2023-01-09T07:03:06.974Z,12.59
2023-01-09T07:05:43.855Z,12.57
2023-01-09T07:08:15.110Z,12.55
2023-01-09T07:10:43.067Z,12.54
2023-01-09T07:13:12.609Z,12.54
2023-01-09T07:15:39.817Z,12.52
2023-01-09T07:18:06.816Z,12.51
2023-01-09T07:20:33.826Z,12.51
2023-01-09T07:23:00.766Z,12.51
2023-01-09T07:25:31.501Z,12.50
2023-01-09T07:27:58.429Z,12.49
2023-01-09T07:30:25.344Z,12.51
2023-01-09T07:32:53.835Z,12.57
2023-01-09T07:35:20.721Z,12.91
2023-01-09T07:37:47.666Z,13.38
2023-01-09T07:40:14.809Z,13.85
2023-01-09T07:42:41.773Z,14.13
2023-01-09T07:45:09.378Z,14.61
2023-01-09T07:47:36.299Z,15.03
2023-01-09T07:52:48.549Z,15.82
2023-01-09T07:55:17.446Z,16.26
2023-01-09T07:57:49.943Z,16.73
2023-01-09T08:00:17.897Z,17.25
2023-01-09T08:02:44.962Z,17.75
2023-01-09T08:05:15.080Z,18.32
2023-01-09T08:07:42.197Z,18.91
2023-01-09T08:10:10.672Z,19.64
2023-01-09T08:12:37.768Z,20.44
2023-01-09T08:15:05.538Z,21.05
2023-01-09T08:17:32.604Z,21.63
2023-01-09T08:19:59.515Z,22.25
2023-01-09T08:22:26.514Z,22.76
2023-01-09T08:24:53.455Z,23.42
2023-01-09T08:27:20.439Z,23.99
2023-01-09T08:29:47.331Z,24.43
2023-01-09T08:32:14.374Z,24.92
2023-01-09T08:34:41.442Z,25.32
2023-01-09T08:37:08.431Z,25.55
2023-01-09T08:39:36.405Z,25.82
2023-01-09T08:42:22.292Z,26.38
2023-01-09T08:45:08.032Z,26.86
2023-01-09T08:47:35.297Z,27.17
2023-01-09T08:50:02.429Z,27.48
2023-01-09T08:52:31.016Z,27.95
2023-01-09T08:54:58.008Z,28.02
2023-01-09T08:57:25.360Z,28.59
2023-01-09T08:59:52.659Z,29.16
2023-01-09T09:02:19.618Z,29.46
2023-01-09T09:04:48.312Z,29.57
2023-01-09T09:07:15.713Z,30.01
2023-01-09T09:09:42.721Z,30.44
2023-01-09T09:12:09.659Z,31.01
2023-01-09T09:14:55.109Z,31.29
2023-01-09T09:17:40.674Z,31.65
2023-01-09T09:22:54.906Z,32.21
2023-01-09T09:25:22.266Z,32.37
2023-01-09T09:27:49.576Z,32.73
2023-01-09T09:30:18.762Z,33.02
2023-01-09T09:32:46.539Z,33.19
2023-01-09T09:35:14.108Z,33.47
2023-01-09T09:37:42.636Z,33.82
2023-01-09T09:40:25.105Z,34.30
2023-01-09T09:43:31.954Z,34.83
2023-01-09T09:46:09.850Z,35.51
2023-01-09T09:48:41.344Z,35.81
2023-01-09T09:51:17.258Z,35.78
2023-01-09T09:54:13.903Z,36.32
2023-01-09T09:56:50.582Z,36.66
2023-01-09T09:59:26.827Z,37.03
2023-01-09T10:02:26.076Z,37.12
2023-01-09T10:07:51.158Z,38.07
2023-01-09T10:10:40.806Z,38.51
2023-01-09T10:13:28.408Z,38.65
2023-01-09T10:16:26.829Z,39.30
2023-01-09T10:19:19.557Z,40.01
2023-01-09T10:22:25.172Z,40.14
2023-01-09T10:24:52.101Z,40.58
2023-01-09T10:27:39.949Z,40.91
2023-01-09T10:30:20.536Z,41.27
2023-01-09T10:33:03.349Z,41.47
2023-01-09T10:35:48.577Z,41.68
2023-01-09T10:38:24.247Z,41.89
2023-01-09T10:41:04.900Z,41.97
2023-01-09T10:43:39.681Z,42.49
2023-01-09T10:46:39.789Z,42.72
2023-01-09T10:49:19.072Z,43.24
2023-01-09T10:51:53.166Z,43.56
2023-01-09T10:54:23.709Z,44.23
2023-01-09T10:57:16.299Z,44.45
2023-01-09T10:59:43.401Z,44.86
2023-01-09T11:02:39.509Z,44.92
2023-01-09T11:05:06.901Z,45.20
2023-01-09T11:07:38.072Z,45.76
2023-01-09T11:10:08.272Z,46.24
2023-01-09T11:12:36.313Z,46.51
2023-01-09T11:15:20.982Z,46.33
2023-01-09T11:17:49.058Z,46.07
2023-01-09T11:20:21.970Z,46.68
2023-01-09T11:22:52.234Z,47.67
2023-01-09T11:25:21.201Z,47.50
2023-01-09T11:28:03.282Z,47.42
2023-01-09T11:30:31.724Z,48.04
2023-01-09T11:32:59.386Z,47.77
2023-01-09T11:35:34.095Z,48.54
2023-01-09T11:38:16.796Z,48.73
2023-01-09T11:40:51.156Z,49.16
2023-01-09T11:43:33.332Z,48.99
2023-01-09T11:46:20.315Z,49.17
2023-01-09T11:48:58.095Z,49.98
2023-01-09T11:51:33.356Z,46.96
2023-01-09T11:54:26.185Z,45.34
2023-01-09T11:56:53.760Z,44.19
2023-01-09T11:59:26.645Z,45.84
2023-01-09T12:02:08.387Z,45.17
2023-01-09T12:05:18.842Z,43.33
2023-01-09T12:08:08.533Z,45.10
2023-01-09T12:10:56.679Z,38.94
2023-01-09T12:13:42.814Z,34.74
2023-01-09T12:16:28.597Z,31.91
2023-01-09T12:19:29.571Z,30.19
2023-01-09T12:22:33.410Z,28.62
2023-01-09T12:25:18.555Z,27.45
2023-01-09T12:28:06.703Z,26.76
2023-01-09T12:30:59.132Z,25.73
2023-01-09T12:33:56.874Z,25.43
2023-01-09T12:36:43.777Z,25.24
2023-01-09T12:39:32.325Z,24.91
2023-01-09T12:42:36.343Z,24.80
2023-01-09T12:45:29.101Z,24.54
2023-01-09T12:52:37.113Z,23.86
2023-01-09T12:55:19.568Z,23.70
2023-01-09T12:58:24.055Z,23.69
2023-01-09T13:00:55.750Z,23.61
2023-01-09T13:04:35.589Z,23.64
2023-01-09T13:07:09.518Z,23.54
2023-01-09T13:13:56.015Z,23.30
2023-01-09T13:16:29.607Z,23.19
2023-01-09T13:19:07.994Z,23.12
2023-01-09T13:25:57.863Z,22.81
2023-01-09T13:28:47.180Z,22.56
2023-01-09T13:31:51.487Z,22.41
2023-01-09T13:34:42.111Z,22.26
2023-01-09T13:37:25.210Z,22.16
2023-01-09T13:40:02.305Z,22.00
2023-01-09T13:42:51.316Z,21.91
2023-01-09T13:45:25.837Z,21.81
2023-01-09T13:48:14.922Z,21.78
2023-01-09T13:50:51.348Z,21.78
2023-01-09T13:53:18.468Z,21.63
2023-01-09T13:55:58.359Z,21.53
2023-01-09T13:58:25.901Z,21.44
2023-01-09T14:00:55.898Z,21.28
2023-01-09T14:03:40.368Z,21.30
2023-01-09T14:06:13.283Z,21.20
2023-01-09T14:08:42.184Z,21.06
2023-01-09T14:11:10.210Z,21.05
2023-01-09T14:13:44.440Z,21.03
2023-01-09T14:16:17.108Z,20.84
2023-01-09T14:18:52.461Z,20.80
2023-01-09T14:21:20.235Z,20.65
2023-01-09T14:24:05.262Z,20.65
2023-01-09T14:26:48.341Z,20.56
2023-01-09T14:29:44.459Z,20.49
2023-01-09T14:32:33.983Z,20.37
2023-01-09T14:35:17.887Z,20.22
2023-01-09T14:38:01.331Z,20.16
2023-01-09T14:40:34.554Z,20.10
2023-01-09T14:43:12.409Z,20.00
2023-01-09T14:45:44.960Z,19.87
2023-01-09T14:48:12.950Z,19.82
2023-01-09T14:50:59.998Z,19.68
2023-01-09T14:53:32.124Z,19.66
2023-01-09T14:56:06.896Z,19.55
2023-01-09T14:59:03.389Z,19.40
2023-01-09T15:01:32.725Z,19.28
2023-01-09T15:04:08.791Z,19.19
2023-01-09T15:10:37.480Z,19.03
2023-01-09T15:13:08.159Z,18.89
2023-01-09T15:15:35.895Z,18.76
2023-01-09T15:21:50.552Z,18.57
2023-01-09T15:24:43.495Z,18.50
2023-01-09T15:27:15.352Z,18.39
2023-01-09T15:29:42.660Z,18.35
2023-01-09T15:32:33.217Z,18.29
2023-01-09T15:35:01.072Z,18.22
2023-01-09T15:37:38.595Z,18.11
2023-01-09T15:43:15.268Z,17.99
2023-01-09T15:45:46.475Z,17.93
2023-01-09T15:48:35.551Z,17.89
2023-01-09T15:51:19.787Z,17.78
2023-01-09T15:53:52.279Z,17.69
2023-01-09T15:56:25.197Z,17.69
2023-01-09T15:58:59.669Z,17.65
2023-01-09T16:01:41.553Z,17.56
2023-01-09T16:04:20.588Z,17.53
2023-01-09T16:06:50.673Z,17.40
2023-01-09T16:09:47.786Z,17.34
2023-01-09T16:12:20.773Z,17.27
2023-01-09T16:15:00.210Z,17.17
2023-01-09T16:17:31.304Z,17.13
2023-01-09T16:20:25.815Z,17.06
2023-01-09T16:22:55.155Z,16.99
2023-01-09T16:25:42.633Z,16.88
2023-01-09T16:28:15.914Z,16.82
2023-01-09T16:31:07.471Z,16.79
2023-01-09T16:33:35.402Z,16.65
2023-01-09T16:36:10.273Z,16.62
2023-01-09T16:38:55.743Z,16.56
2023-01-09T16:41:41.652Z,16.50
2023-01-09T16:44:12.133Z,16.42
2023-01-09T16:46:59.380Z,16.37
2023-01-09T16:52:33.915Z,16.23
2023-01-09T16:55:01.001Z,16.17
2023-01-09T16:57:27.923Z,16.16
2023-01-09T17:00:01.870Z,16.14
2023-01-09T17:02:29.753Z,16.08
2023-01-09T17:04:56.819Z,16.07
2023-01-09T17:07:25.706Z,16.03
2023-01-09T17:09:53.434Z,15.99
2023-01-09T17:12:54.245Z,15.93
2023-01-09T17:18:25.669Z,15.83
2023-01-09T17:20:55.544Z,15.79
2023-01-09T17:23:26.237Z,15.78
2023-01-09T17:26:37.360Z,15.77
2023-01-09T17:29:07.040Z,15.69
2023-01-09T17:31:34.105Z,15.69
2023-01-09T17:34:01.661Z,15.67
2023-01-09T17:36:34.824Z,15.65
2023-01-09T17:39:02.294Z,15.64
2023-01-09T17:41:32.782Z,15.58
2023-01-09T17:44:03.052Z,15.53
2023-01-09T17:46:35.234Z,15.55
2023-01-09T17:49:03.632Z,15.50
2023-01-09T17:51:30.857Z,15.48
2023-01-09T17:54:23.581Z,15.43
2023-01-09T17:56:51.816Z,15.37
2023-01-09T17:59:18.978Z,15.33
2023-01-09T18:01:47.443Z,15.31
2023-01-09T18:04:14.342Z,15.32
2023-01-09T18:06:59.769Z,15.31
2023-01-09T18:09:26.701Z,15.24
2023-01-09T18:11:53.601Z,15.23
2023-01-09T18:14:20.741Z,15.20
2023-01-09T18:16:47.839Z,15.19
2023-01-09T18:19:14.841Z,15.14
2023-01-09T18:21:41.773Z,15.14
2023-01-09T18:24:11.710Z,15.11
2023-01-09T18:26:39.017Z,15.08
2023-01-09T18:29:05.948Z,15.01
2023-01-09T18:31:33.516Z,15.03
2023-01-09T18:34:05.240Z,15.00
2023-01-09T18:36:32.226Z,14.95
2023-01-09T18:39:02.582Z,14.92
2023-01-09T18:41:38.803Z,14.90
2023-01-09T18:44:05.925Z,14.88
2023-01-09T18:46:44.557Z,14.83
2023-01-09T18:49:11.851Z,14.78
2023-01-09T18:51:41.014Z,14.77
2023-01-09T18:54:08.493Z,14.74
2023-01-09T18:56:36.210Z,14.73
2023-01-09T18:59:03.326Z,14.71
2023-01-09T19:01:36.665Z,14.68
2023-01-09T19:04:04.916Z,14.65
2023-01-09T19:06:31.921Z,14.65
2023-01-09T19:08:59.514Z,14.63
2023-01-09T19:11:26.660Z,14.58
2023-01-09T19:13:53.754Z,14.58
2023-01-09T19:16:23.993Z,14.55
2023-01-09T19:18:50.907Z,14.55
2023-01-09T19:21:23.834Z,14.54
2023-01-09T19:23:58.995Z,14.49
2023-01-09T19:26:31.392Z,14.50
2023-01-09T19:29:17.588Z,14.49
2023-01-09T19:31:46.953Z,14.37
2023-01-09T19:34:15.317Z,14.40
2023-01-09T19:37:01.730Z,14.37
2023-01-09T19:39:28.737Z,14.33
2023-01-09T19:41:56.250Z,14.30
2023-01-09T19:44:23.302Z,14.28
2023-01-09T19:46:50.593Z,14.25
2023-01-09T19:49:36.209Z,14.25
2023-01-09T19:52:03.335Z,14.21
2023-01-09T19:57:14.912Z,14.15
2023-01-09T19:59:43.772Z,14.13
2023-01-09T20:02:14.889Z,14.12
2023-01-09T20:04:41.773Z,14.08
2023-01-09T20:07:08.981Z,14.05
2023-01-09T20:09:36.082Z,14.02
2023-01-09T20:12:05.550Z,14.02
2023-01-09T20:14:37.981Z,13.97
2023-01-09T20:17:05.292Z,13.95
2023-01-09T20:19:35.708Z,13.94
2023-01-09T20:22:03.498Z,13.89
2023-01-09T20:24:30.428Z,13.89
2023-01-09T20:26:57.485Z,13.89
2023-01-09T20:29:42.967Z,13.87
2023-01-09T20:32:13.040Z,13.87
2023-01-09T20:34:48.286Z,13.81
2023-01-09T20:37:15.553Z,13.81
2023-01-09T20:39:42.511Z,13.78
2023-01-09T20:42:21.708Z,13.77
2023-01-09T20:44:51.579Z,13.73
2023-01-09T20:47:18.571Z,13.71
2023-01-09T20:49:45.527Z,13.69
2023-01-09T20:52:12.410Z,13.67
2023-01-09T20:54:41.840Z,13.63
2023-01-09T20:57:10.943Z,13.62
2023-01-09T20:59:37.985Z,13.62
2023-01-09T21:02:23.885Z,13.59
2023-01-09T21:04:50.844Z,13.54
2023-01-09T21:07:17.877Z,13.52
2023-01-09T21:09:45.710Z,13.50
2023-01-09T21:12:28.685Z,13.48
2023-01-09T21:14:55.808Z,13.46
2023-01-09T21:17:23.441Z,13.44
2023-01-09T21:19:50.948Z,13.43
2023-01-09T21:22:17.843Z,13.42
2023-01-09T21:24:44.843Z,13.39
2023-01-09T21:27:11.824Z,13.33
2023-01-09T21:29:46.327Z,13.31
2023-01-09T21:32:13.657Z,13.29
2023-01-09T21:34:41.122Z,13.27
2023-01-09T21:37:08.868Z,13.25
2023-01-09T21:39:36.397Z,13.23
2023-01-09T21:42:22.157Z,13.19
2023-01-09T21:45:11.255Z,13.16
2023-01-09T21:47:38.804Z,13.15
2023-01-09T21:50:06.490Z,13.12
2023-01-09T21:52:37.037Z,13.11
2023-01-09T21:55:04.654Z,13.12
2023-01-09T21:57:31.565Z,13.10
2023-01-09T22:00:01.694Z,13.11
2023-01-09T22:02:40.210Z,13.08
2023-01-09T22:05:09.983Z,13.06
2023-01-09T22:07:39.432Z,13.08
2023-01-09T22:10:07.132Z,13.06
2023-01-09T22:12:34.122Z,13.05
2023-01-09T22:15:01.342Z,13.03
2023-01-09T22:17:29.964Z,13.02
2023-01-09T22:19:57.340Z,13.00
2023-01-09T22:22:24.990Z,12.99
2023-01-09T22:24:53.804Z,12.97
2023-01-09T22:27:21.269Z,12.92
2023-01-09T22:29:54.907Z,12.91
2023-01-09T22:32:22.690Z,12.84
2023-01-09T22:34:53.021Z,12.84
2023-01-09T22:37:23.064Z,12.81
2023-01-09T22:39:53.346Z,12.78
2023-01-09T22:42:22.728Z,12.75
2023-01-09T22:44:49.565Z,12.75
2023-01-09T22:47:35.168Z,12.73
2023-01-09T22:50:05.753Z,12.71
2023-01-09T22:52:34.562Z,12.68
2023-01-09T22:55:03.484Z,12.66
2023-01-09T22:57:30.683Z,12.63
2023-01-09T23:00:03.819Z,12.62
2023-01-09T23:02:33.926Z,12.60
2023-01-09T23:05:20.221Z,12.54
2023-01-09T23:07:47.454Z,12.50
2023-01-09T23:10:17.654Z,12.50
2023-01-09T23:12:51.475Z,12.47
2023-01-09T23:15:18.579Z,12.45
2023-01-09T23:17:49.897Z,12.42
2023-01-09T23:20:17.609Z,12.37
2023-01-09T23:22:45.183Z,12.35
2023-01-09T23:25:14.766Z,12.32
2023-01-09T23:27:45.206Z,12.32
2023-01-09T23:33:30.976Z,12.24
2023-01-09T23:35:58.690Z,12.26
2023-01-09T23:38:25.894Z,12.25
2023-01-09T23:43:48.350Z,12.23
2023-01-09T23:46:24.069Z,12.23
2023-01-09T23:48:53.553Z,12.26
2023-01-09T23:51:25.452Z,12.23
2023-01-09T23:54:11.345Z,12.22
2023-01-09T23:56:41.236Z,12.18
2023-01-09T23:59:12.073Z,12.18
